Bullhead City, AZ (86439)

5:32 PM MST on December 26, 2014 (GMT -0700)
Bill at Desert Foothills Estates | Change Station
CLOSE
Current Station
Personal Weather Station
Location: Bullhead City, AZ
Elevation: 994 ft
Nearby Weather Stations

Elev 994 ft 35.15 °N, 114.53 °W | Updated 5 seconds ago

Clear
Clear
54.3 °F
Feels Like 54.3 °F
N
4.8
Wind Variable Wind from NW
Gusts 8.1 mph

Today
High -- | Low -- °F
--% Chance of Precip.
Yesterday
High -- | Low -- °F
Precip. -- in
7:44 AM 5:32 PM
Waxing Crescent, 30% visible
Pressure 30.10 in
Visibility 10.0 miles
Clouds Clear
Dew Point 14 °F
Humidity 20%
Rainfall 0.00 in
Snow Depth Not available.
UV 0 out of 12
Pollen 2.20 out of 12
Air Quality Not available.
Flu Activity Not available.
METAR KIFP 270015Z AUTO 34014KT 10SM CLR 12/M10 A3010 RMK AO2

More Conditions Fewer Conditions

Pressure 30.10 in
Visibility 10.0 miles
Clouds Clear
Dew Point 14 °F
Humidity 20%
Rainfall 0.00 in
Snow Depth Not available.
UV 0 out of 12
Pollen 2.20 out of 12
Air Quality Not available.
Flu Activity Not available.
METAR KIFP 270015Z AUTO 34014KT 10SM CLR 12/M10 A3010 RMK AO2

More Conditions Fewer Conditions

10-Day Weather Forecast

Almanac

Astronomy

Dec. 26, 2014 Rise Set
Actual Time
Civil Twilight
Nautical Twilight
Astronomical Twilight
Moon
Length of Visible Light
Length of Day
Tomorrow will be .
, % of the Moon is Illuminated

Today's Extremes

State Highs State Lows

Community

WunderPhotos

Upload Photos

1,780,795 photos uploaded!

WunderBlogs® & News

Nearby

Air Quality

  Air Quality AQ Index Pollutant
Not available.

Snow Depth

Station Depth Elevation

Earthquake Activity

City Distance Mag. Time & Date
Minimum magnitude displayed is 2.5.

Coastal Water Temperatures

Place Temperature

Nearby Weather Stations